Time;durP1;ratioP1;P1;durP2;ratioP2;P2;SDS_P1;SDS_P2;PMS_P1;PMS_P2;Temp;Humidity;BMP_temperature;BMP_pressure;BME280_temperature;BME280_humidity;BME280_pressure;Samples;Min_cycle;Max_cycle;Signal;HPM_P1;HPM_P2
2021/11/29 00:00:38;;;;;;;;;10.00;9.00;;;;;;;;5026479;28;45367;-87
2021/11/29 00:03:06;;;;;;;;;9.75;8.50;;;;;;;;5026938;28;45419;-87
2021/11/29 00:05:32;;;;;;;;;9.00;7.25;;;;;;;;5026284;28;45143;-87
2021/11/29 00:08:00;;;;;;;;;9.25;8.00;;;;;;;;5026427;28;47262;-87
2021/11/29 00:10:25;;;;;;;;;9.00;8.75;;;;;;;;5026995;28;45518;-87
2021/11/29 00:12:51;;;;;;;;;15.00;12.00;;;;;;;;5027744;28;45323;-87
2021/11/29 00:15:16;;;;;;;;;11.33;10.00;;;;;;;;5027288;28;45145;-87
2021/11/29 00:17:41;;;;;;;;;12.33;10.67;;;;;;;;5026920;28;47633;-87
2021/11/29 00:20:08;;;;;;;;;12.33;10.00;;;;;;;;5026578;28;45138;-87
2021/11/29 00:22:33;;;;;;;;;12.75;12.50;;;;;;;;5026796;28;45292;-87
2021/11/29 00:24:58;;;;;;;;;13.00;11.33;;;;;;;;5027875;28;45103;-88
2021/11/29 00:27:24;;;;;;;;;9.67;9.00;;;;;;;;5029279;28;47042;-87
2021/11/29 00:29:49;;;;;;;;;11.25;10.00;;;;;;;;5030954;28;45502;-87
2021/11/29 00:32:14;;;;;;;;;12.67;10.67;;;;;;;;5033185;28;45208;-87
2021/11/29 00:34:39;;;;;;;;;9.00;9.00;;;;;;;;5033636;28;45193;-87
2021/11/29 00:37:05;;;;;;;;;10.33;10.00;;;;;;;;5033193;28;46720;-87
2021/11/29 00:39:30;;;;;;;;;10.33;9.67;;;;;;;;5033350;28;45421;-87
2021/11/29 00:41:56;;;;;;;;;6.75;6.75;;;;;;;;5033886;28;45273;-87
2021/11/29 00:44:21;;;;;;;;;9.00;9.00;;;;;;;;5033451;28;44988;-87
2021/11/29 00:46:46;;;;;;;;;10.33;8.33;;;;;;;;5033195;28;47044;-87
2021/11/29 00:49:11;;;;;;;;;8.33;7.00;;;;;;;;5033298;28;45041;-87
2021/11/29 00:51:36;;;;;;;;;9.67;8.67;;;;;;;;5032766;28;45188;-87
2021/11/29 00:54:02;;;;;;;;;5.00;5.00;;;;;;;;5051455;28;45242;-88
2021/11/29 00:56:27;;;;;;;;;9.00;9.00;;;;;;;;5050663;28;46113;-87
2021/11/29 00:58:53;;;;;;;;;8.00;7.50;;;;;;;;5033065;28;45141;-86
2021/11/29 01:01:18;;;;;;;;;11.33;9.00;;;;;;;;5032264;28;45080;-87
2021/11/29 01:03:43;;;;;;;;;7.33;7.33;;;;;;;;5033497;28;45039;-87
2021/11/29 01:06:09;;;;;;;;;8.33;7.33;;;;;;;;5032496;28;46795;-87
2021/11/29 01:08:34;;;;;;;;;6.00;6.00;;;;;;;;5050756;28;45285;-87
2021/11/29 01:11:00;;;;;;;;;7.75;6.00;;;;;;;;5032933;28;45044;-87
2021/11/29 01:13:25;;;;;;;;;8.50;7.75;;;;;;;;5033183;28;45296;-87
2021/11/29 01:15:51;;;;;;;;;7.50;7.50;;;;;;;;5026581;28;46967;-87
2021/11/29 01:18:16;;;;;;;;;9.00;8.67;;;;;;;;5032841;28;45331;-87
2021/11/29 01:20:43;;;;;;;;;9.33;9.00;;;;;;;;5033130;28;45104;-87
2021/11/29 01:23:09;;;;;;;;;9.00;8.75;;;;;;;;5032323;28;45330;-87
2021/11/29 01:25:34;;;;;;;;;10.25;9.00;;;;;;;;5032015;28;47446;-87
2021/11/29 01:27:59;;;;;;;;;7.67;6.33;;;;;;;;5032749;28;46063;-87
2021/11/29 01:30:25;;;;;;;;;11.00;9.67;;;;;;;;5032593;28;45141;-87
2021/11/29 01:32:50;;;;;;;;;9.75;8.75;;;;;;;;5032613;28;45346;-87
2021/11/29 01:35:15;;;;;;;;;9.00;8.33;;;;;;;;5031328;28;46896;-87
2021/11/29 01:37:40;;;;;;;;;9.00;8.50;;;;;;;;5032369;28;45124;-87
2021/11/29 01:40:07;;;;;;;;;8.00;8.00;;;;;;;;5032530;28;45093;-86
2021/11/29 01:42:32;;;;;;;;;7.75;6.75;;;;;;;;5026561;28;45385;-87
2021/11/29 01:44:59;;;;;;;;;9.00;9.00;;;;;;;;5032379;28;47594;-87
2021/11/29 01:47:24;;;;;;;;;9.00;8.00;;;;;;;;5050304;28;45037;-87
2021/11/29 01:49:50;;;;;;;;;9.75;8.25;;;;;;;;5030511;28;45078;-87
2021/11/29 01:52:15;;;;;;;;;6.67;6.67;;;;;;;;5028226;28;45476;-87
2021/11/29 01:54:40;;;;;;;;;6.00;6.00;;;;;;;;5032137;28;47317;-87
2021/11/29 01:57:06;;;;;;;;;7.75;6.75;;;;;;;;5050556;28;44907;-87
2021/11/29 01:59:31;;;;;;;;;6.75;6.00;;;;;;;;5031888;28;45458;-86
2021/11/29 02:01:57;;;;;;;;;9.25;8.75;;;;;;;;5050915;28;45087;-87
2021/11/29 02:04:22;;;;;;;;;8.25;6.75;;;;;;;;5050113;28;45889;-87
2021/11/29 02:06:47;;;;;;;;;7.75;6.00;;;;;;;;5031223;28;45121;-87
2021/11/29 02:09:13;;;;;;;;;5.50;5.00;;;;;;;;5049392;28;45221;-85
2021/11/29 02:11:38;;;;;;;;;5.67;5.00;;;;;;;;5032171;28;45223;-87
2021/11/29 02:14:04;;;;;;;;;6.25;6.00;;;;;;;;5032357;28;47233;-87
2021/11/29 02:16:29;;;;;;;;;6.00;5.25;;;;;;;;5031558;28;45318;-86
2021/11/29 02:18:55;;;;;;;;;6.50;5.75;;;;;;;;5033302;28;45077;-87
2021/11/29 02:21:22;;;;;;;;;8.00;6.00;;;;;;;;5031355;28;45200;-86
2021/11/29 02:23:51;;;;;;;;;7.25;6.00;;;;;;;;5031538;28;47801;-87
2021/11/29 02:26:17;;;;;;;;;8.25;7.75;;;;;;;;5031509;28;45473;-87
2021/11/29 02:28:44;;;;;;;;;6.25;5.25;;;;;;;;5048126;28;45296;-87
2021/11/29 02:31:12;;;;;;;;;6.00;6.00;;;;;;;;5031723;28;45219;-87
2021/11/29 02:33:37;;;;;;;;;9.00;6.75;;;;;;;;5029449;28;47539;-87
2021/11/29 02:36:03;;;;;;;;;5.25;5.25;;;;;;;;5031395;28;45352;-87
2021/11/29 02:38:29;;;;;;;;;9.50;9.00;;;;;;;;5029769;28;45127;-87
2021/11/29 02:40:55;;;;;;;;;6.00;6.00;;;;;;;;5031573;28;45064;-87
2021/11/29 02:43:20;;;;;;;;;5.00;5.00;;;;;;;;5030738;28;47057;-86
2021/11/29 02:45:45;;;;;;;;;8.00;7.33;;;;;;;;5031370;28;45053;-86
2021/11/29 02:48:10;;;;;;;;;8.67;8.67;;;;;;;;5031062;28;45304;-87
2021/11/29 02:50:36;;;;;;;;;10.67;9.33;;;;;;;;5048800;28;45089;-87
2021/11/29 02:53:02;;;;;;;;;7.75;7.75;;;;;;;;5030253;28;47642;-87
2021/11/29 02:55:27;;;;;;;;;5.00;5.00;;;;;;;;5031022;28;44979;-86
2021/11/29 02:57:52;;;;;;;;;9.33;5.00;;;;;;;;5031550;28;45146;-87
2021/11/29 03:00:18;;;;;;;;;6.67;4.33;;;;;;;;5030622;28;45171;-87
2021/11/29 03:02:43;;;;;;;;;8.00;5.67;;;;;;;;5029373;28;47460;-87
2021/11/29 03:05:09;;;;;;;;;5.33;5.33;;;;;;;;5030638;28;45286;-86
2021/11/29 03:07:34;;;;;;;;;6.00;6.00;;;;;;;;5030475;28;45239;-87
2021/11/29 03:09:59;;;;;;;;;6.00;6.00;;;;;;;;5031711;28;45155;-87
2021/11/29 03:12:25;;;;;;;;;6.00;5.00;;;;;;;;5030637;28;47093;-87
2021/11/29 03:14:50;;;;;;;;;4.33;4.33;;;;;;;;5031092;28;45073;-87
2021/11/29 03:17:15;;;;;;;;;5.67;5.00;;;;;;;;5031162;28;45109;-87
2021/11/29 03:19:41;;;;;;;;;4.67;4.00;;;;;;;;5030680;28;45205;-87
2021/11/29 03:22:08;;;;;;;;;4.25;4.00;;;;;;;;5022011;28;46980;-87
2021/11/29 03:24:33;;;;;;;;;5.00;5.00;;;;;;;;5028940;28;45228;-87
2021/11/29 03:26:58;;;;;;;;;5.00;4.50;;;;;;;;5028772;28;45099;-87
2021/11/29 03:29:24;;;;;;;;;6.00;6.00;;;;;;;;5028932;28;45301;-87
2021/11/29 03:31:52;;;;;;;;;6.25;5.50;;;;;;;;5019551;28;47586;-87
2021/11/29 03:34:18;;;;;;;;;4.25;4.25;;;;;;;;5028922;28;45534;-87
2021/11/29 03:36:45;;;;;;;;;5.00;4.50;;;;;;;;5030422;28;45176;-87
2021/11/29 03:39:18;;;;;;;;;4.00;4.00;;;;;;;;5029475;28;45340;-87
2021/11/29 03:41:44;;;;;;;;;5.00;5.00;;;;;;;;5030859;28;47647;-87
2021/11/29 03:44:11;;;;;;;;;3.75;3.75;;;;;;;;5030207;28;45410;-87
2021/11/29 03:46:36;;;;;;;;;5.00;5.00;;;;;;;;5030677;28;45040;-86
2021/11/29 03:49:01;;;;;;;;;5.00;5.00;;;;;;;;5029970;28;45359;-87
2021/11/29 03:51:27;;;;;;;;;6.75;5.50;;;;;;;;5029442;28;47863;-87
2021/11/29 03:53:52;;;;;;;;;5.25;5.25;;;;;;;;5028766;28;45280;-87
2021/11/29 03:56:18;;;;;;;;;4.67;4.67;;;;;;;;5028779;28;45227;-87
2021/11/29 03:58:43;;;;;;;;;5.00;5.00;;;;;;;;5030200;28;45647;-87
2021/11/29 04:01:08;;;;;;;;;5.00;4.00;;;;;;;;5029713;28;47239;-86
2021/11/29 04:03:34;;;;;;;;;8.00;6.00;;;;;;;;5030636;28;45023;-87
2021/11/29 04:05:59;;;;;;;;;5.25;4.75;;;;;;;;5029043;28;45001;-87
2021/11/29 04:08:25;;;;;;;;;2.00;2.00;;;;;;;;5047661;28;45181;-87
2021/11/29 04:10:50;;;;;;;;;4.00;3.25;;;;;;;;5030368;28;47155;-87
2021/11/29 04:13:16;;;;;;;;;4.50;4.25;;;;;;;;5029455;28;45390;-87
2021/11/29 04:15:41;;;;;;;;;4.25;3.75;;;;;;;;5049116;28;45188;-87
2021/11/29 04:18:06;;;;;;;;;5.00;4.00;;;;;;;;5030630;28;45259;-87
2021/11/29 04:20:32;;;;;;;;;5.00;5.00;;;;;;;;5029100;28;46936;-87
2021/11/29 04:22:57;;;;;;;;;3.50;3.50;;;;;;;;5030171;28;44986;-87
2021/11/29 04:25:24;;;;;;;;;6.67;6.00;;;;;;;;5025869;28;45423;-87
2021/11/29 04:27:50;;;;;;;;;7.75;6.00;;;;;;;;5026504;28;45263;-86
2021/11/29 04:30:19;;;;;;;;;5.00;5.00;;;;;;;;5028330;28;45508;-87
2021/11/29 04:32:48;;;;;;;;;4.75;4.25;;;;;;;;5026559;28;45192;-87
2021/11/29 04:35:14;;;;;;;;;5.25;5.25;;;;;;;;5026078;28;45133;-87
2021/11/29 04:37:39;;;;;;;;;5.25;5.00;;;;;;;;5027158;28;45319;-87
2021/11/29 04:40:05;;;;;;;;;5.00;4.75;;;;;;;;5022299;28;47820;-87
2021/11/29 04:42:30;;;;;;;;;2.50;2.00;;;;;;;;5025984;28;45181;-87
2021/11/29 04:44:55;;;;;;;;;6.00;5.67;;;;;;;;5026678;28;45121;-87
2021/11/29 04:47:21;;;;;;;;;8.00;6.00;;;;;;;;5026210;28;45400;-87
2021/11/29 04:49:46;;;;;;;;;6.00;5.00;;;;;;;;5026663;28;47063;-87
2021/11/29 04:52:11;;;;;;;;;5.33;5.00;;;;;;;;5024126;28;45265;-87
2021/11/29 04:54:37;;;;;;;;;5.67;5.00;;;;;;;;5026865;28;45221;-88
2021/11/29 04:57:02;;;;;;;;;7.33;7.33;;;;;;;;5025917;28;45455;-87
2021/11/29 04:59:27;;;;;;;;;5.50;4.00;;;;;;;;5026109;28;47778;-87
2021/11/29 05:01:55;;;;;;;;;5.67;5.67;;;;;;;;5027175;28;45260;-87
2021/11/29 05:04:20;;;;;;;;;4.25;4.25;;;;;;;;5026638;28;45116;-87
2021/11/29 05:06:45;;;;;;;;;5.50;4.75;;;;;;;;5026384;28;45010;-87
2021/11/29 05:09:11;;;;;;;;;6.00;5.33;;;;;;;;5026970;28;45867;-87
2021/11/29 05:11:37;;;;;;;;;5.00;5.00;;;;;;;;5025824;28;45274;-87
2021/11/29 05:14:02;;;;;;;;;8.67;6.00;;;;;;;;5026849;28;45224;-87
2021/11/29 05:16:30;;;;;;;;;5.75;5.00;;;;;;;;5027700;28;45298;-87
2021/11/29 05:18:55;;;;;;;;;7.50;7.50;;;;;;;;5028749;28;47059;-87
2021/11/29 05:21:20;;;;;;;;;7.33;6.00;;;;;;;;5028761;28;45250;-87
2021/11/29 05:23:47;;;;;;;;;6.00;6.00;;;;;;;;5029670;28;45314;-87
2021/11/29 05:26:13;;;;;;;;;4.75;3.75;;;;;;;;5028939;28;45371;-87
2021/11/29 05:28:38;;;;;;;;;6.00;6.00;;;;;;;;5031941;28;47122;-87
2021/11/29 05:31:03;;;;;;;;;5.67;5.33;;;;;;;;5031443;28;45248;-87
2021/11/29 05:33:29;;;;;;;;;5.67;4.00;;;;;;;;5032738;28;46223;-88
2021/11/29 05:35:54;;;;;;;;;8.67;8.00;;;;;;;;5029941;28;45129;-87
2021/11/29 05:38:19;;;;;;;;;6.00;5.00;;;;;;;;5015172;28;47358;-87
2021/11/29 05:40:44;;;;;;;;;5.67;5.00;;;;;;;;5014234;28;45969;-88
2021/11/29 05:43:10;;;;;;;;;7.33;5.33;;;;;;;;5014217;28;45246;-87
2021/11/29 05:45:35;;;;;;;;;5.00;4.67;;;;;;;;5015832;28;45856;-88
2021/11/29 05:48:01;;;;;;;;;5.00;5.00;;;;;;;;5014367;28;47971;-87
2021/11/29 05:50:26;;;;;;;;;4.00;2.75;;;;;;;;5018210;28;45503;-87
2021/11/29 05:52:53;;;;;;;;;4.00;4.00;;;;;;;;5019278;28;45276;-87
2021/11/29 05:55:18;;;;;;;;;6.00;4.50;;;;;;;;5017081;28;45752;-87
2021/11/29 05:57:44;;;;;;;;;6.00;6.00;;;;;;;;5014022;28;47944;-87
2021/11/29 06:00:11;;;;;;;;;6.50;6.25;;;;;;;;5017089;28;45829;-88
2021/11/29 06:02:38;;;;;;;;;6.50;6.00;;;;;;;;5016656;28;45405;-87
2021/11/29 06:05:04;;;;;;;;;7.75;5.75;;;;;;;;5024659;28;45457;-87
2021/11/29 06:07:29;;;;;;;;;7.25;7.25;;;;;;;;5023145;28;47164;-86
2021/11/29 06:09:54;;;;;;;;;6.67;6.00;;;;;;;;5022304;28;45668;-86
2021/11/29 06:12:19;;;;;;;;;7.00;6.67;;;;;;;;5021640;28;45361;-87
2021/11/29 06:14:45;;;;;;;;;7.75;6.00;;;;;;;;5022292;28;45691;-87
2021/11/29 06:17:10;;;;;;;;;6.67;6.00;;;;;;;;5023610;28;47040;-86
2021/11/29 06:19:35;;;;;;;;;12.00;10.00;;;;;;;;5017204;28;45591;-87
2021/11/29 06:22:00;;;;;;;;;8.00;8.00;;;;;;;;5065079;22;45420;-86
2021/11/29 06:24:26;;;;;;;;;9.67;8.67;;;;;;;;5046629;28;44966;-86
2021/11/29 06:26:51;;;;;;;;;9.00;9.00;;;;;;;;5026919;28;47549;-85
2021/11/29 06:29:16;;;;;;;;;14.33;12.67;;;;;;;;5015716;28;45570;-86
2021/11/29 06:31:42;;;;;;;;;8.33;6.67;;;;;;;;5029813;28;45395;-87
2021/11/29 06:34:07;;;;;;;;;6.00;6.00;;;;;;;;5029636;28;45358;-86
2021/11/29 06:36:33;;;;;;;;;9.00;9.00;;;;;;;;5025436;28;47543;-86
2021/11/29 06:38:59;;;;;;;;;8.25;6.50;;;;;;;;5023989;28;45346;-86
2021/11/29 06:41:24;;;;;;;;;8.00;7.25;;;;;;;;5018321;28;45585;-86
2021/11/29 06:43:50;;;;;;;;;8.75;8.25;;;;;;;;5018579;28;46061;-85
2021/11/29 06:46:16;;;;;;;;;7.25;5.50;;;;;;;;5016744;28;47163;-85
2021/11/29 06:48:41;;;;;;;;;7.25;5.75;;;;;;;;5019285;28;45399;-86
2021/11/29 06:51:06;;;;;;;;;5.75;5.75;;;;;;;;5018749;28;45171;-86
2021/11/29 06:53:33;;;;;;;;;11.00;9.75;;;;;;;;5033203;28;45615;-85
2021/11/29 06:55:58;;;;;;;;;8.75;8.75;;;;;;;;5014811;28;47298;-85
2021/11/29 06:58:24;;;;;;;;;12.33;9.00;;;;;;;;5013356;28;45479;-86
2021/11/29 07:00:49;;;;;;;;;8.75;8.25;;;;;;;;5006451;28;45327;-86
2021/11/29 07:03:14;;;;;;;;;9.00;8.25;;;;;;;;5016512;28;45447;-86
2021/11/29 07:05:40;;;;;;;;;5.50;5.50;;;;;;;;5014741;28;46972;-85
2021/11/29 07:08:05;;;;;;;;;9.50;8.25;;;;;;;;5017030;28;45760;-87
2021/11/29 07:10:30;;;;;;;;;5.00;5.00;;;;;;;;5028889;28;45552;-86
2021/11/29 07:12:56;;;;;;;;;8.50;8.00;;;;;;;;5024121;28;45343;-86
2021/11/29 07:15:23;;;;;;;;;8.50;6.00;;;;;;;;5013454;28;48358;-86
2021/11/29 07:17:48;;;;;;;;;12.00;10.25;;;;;;;;5012994;28;45620;-86
2021/11/29 07:20:14;;;;;;;;;10.00;9.00;;;;;;;;5012438;28;45510;-86
2021/11/29 07:22:39;;;;;;;;;11.25;10.00;;;;;;;;5012511;28;45458;-86
2021/11/29 07:25:05;;;;;;;;;10.75;9.50;;;;;;;;5012245;28;47812;-86
2021/11/29 07:27:32;;;;;;;;;8.50;7.75;;;;;;;;5012568;28;45338;-86
2021/11/29 07:29:58;;;;;;;;;9.25;6.75;;;;;;;;5013149;28;45637;-85
2021/11/29 07:32:23;;;;;;;;;8.00;7.25;;;;;;;;5011849;28;45629;-87
2021/11/29 07:34:49;;;;;;;;;10.00;10.00;;;;;;;;5010493;28;47183;-85
2021/11/29 07:37:16;;;;;;;;;9.75;8.50;;;;;;;;5021690;28;45451;-86
2021/11/29 07:39:42;;;;;;;;;9.50;8.25;;;;;;;;5021625;28;45399;-84
2021/11/29 07:42:07;;;;;;;;;9.25;7.75;;;;;;;;5030133;28;45105;-84
2021/11/29 07:44:32;;;;;;;;;13.00;10.75;;;;;;;;5026287;28;47134;-88
2021/11/29 07:46:58;;;;;;;;;9.00;9.00;;;;;;;;5016251;28;45690;-85
2021/11/29 07:49:23;;;;;;;;;9.00;8.00;;;;;;;;5012702;28;45494;-85
2021/11/29 07:51:48;;;;;;;;;8.33;8.00;;;;;;;;5003335;28;45286;-87
2021/11/29 07:54:13;;;;;;;;;9.00;9.00;;;;;;;;5013173;28;46907;-83
2021/11/29 07:56:38;;;;;;;;;10.67;9.33;;;;;;;;5009396;28;46000;-84
2021/11/29 07:59:04;;;;;;;;;10.00;10.00;;;;;;;;5014761;28;45740;-86
2021/11/29 08:01:29;;;;;;;;;11.33;9.00;;;;;;;;5029089;28;45228;-85
2021/11/29 08:03:54;;;;;;;;;9.33;9.00;;;;;;;;5014022;28;48164;-84
2021/11/29 08:06:19;;;;;;;;;9.33;9.33;;;;;;;;5013834;28;45785;-84
2021/11/29 08:08:46;;;;;;;;;10.00;10.00;;;;;;;;5029511;28;45082;-85
2021/11/29 08:11:11;;;;;;;;;11.00;9.00;;;;;;;;5026926;28;45031;-83
2021/11/29 08:13:36;;;;;;;;;10.00;9.33;;;;;;;;5046158;28;45454;-86
2021/11/29 08:16:02;;;;;;;;;6.50;6.50;;;;;;;;5023912;28;45088;-86
2021/11/29 08:18:27;;;;;;;;;8.75;6.00;;;;;;;;5018687;28;45157;-87
2021/11/29 08:20:52;;;;;;;;;7.33;6.67;;;;;;;;5017616;28;45464;-85
2021/11/29 08:23:18;;;;;;;;;9.75;9.50;;;;;;;;5031784;28;45771;-87
2021/11/29 08:25:43;;;;;;;;;8.33;8.00;;;;;;;;5030397;28;45527;-88
2021/11/29 08:28:10;;;;;;;;;10.00;10.00;;;;;;;;5034973;28;45458;-86
2021/11/29 08:30:36;;;;;;;;;10.00;9.25;;;;;;;;5032659;28;45569;-85
2021/11/29 08:33:01;;;;;;;;;8.75;8.75;;;;;;;;5032366;28;46262;-84
2021/11/29 08:35:27;;;;;;;;;13.75;12.50;;;;;;;;5023385;28;45868;-84
2021/11/29 08:37:54;;;;;;;;;12.00;12.00;;;;;;;;5047166;28;44921;-84
2021/11/29 08:40:26;;;;;;;;;13.50;13.50;;;;;;;;5015391;28;45641;-84
2021/11/29 08:42:51;;;;;;;;;17.00;16.50;;;;;;;;5013761;28;48184;-85
2021/11/29 08:45:16;;;;;;;;;13.33;13.00;;;;;;;;5016357;28;45429;-85
2021/11/29 08:47:41;;;;;;;;;14.33;13.33;;;;;;;;5048408;28;45204;-89
2021/11/29 08:50:08;;;;;;;;;13.00;13.00;;;;;;;;5014882;28;45451;-83
2021/11/29 08:52:34;;;;;;;;;17.00;16.25;;;;;;;;5017225;28;48115;-85
2021/11/29 08:55:00;;;;;;;;;13.50;12.25;;;;;;;;5015867;28;45519;-85
2021/11/29 08:57:25;;;;;;;;;11.00;10.00;;;;;;;;5018661;28;45393;-85
2021/11/29 08:59:50;;;;;;;;;21.33;18.33;;;;;;;;5042129;28;45360;-85
2021/11/29 09:02:15;;;;;;;;;12.33;11.33;;;;;;;;5022714;28;48247;-84
2021/11/29 09:04:40;;;;;;;;;13.00;11.67;;;;;;;;5019351;28;45503;-84
2021/11/29 09:07:06;;;;;;;;;16.33;13.33;;;;;;;;5037556;28;45362;-85
2021/11/29 09:09:32;;;;;;;;;19.33;17.33;;;;;;;;5014639;28;45629;-85
2021/11/29 09:11:58;;;;;;;;;14.75;14.00;;;;;;;;5016882;28;48400;-85
2021/11/29 09:14:23;;;;;;;;;13.25;12.00;;;;;;;;5016483;28;45727;-86
2021/11/29 09:16:49;;;;;;;;;14.00;14.00;;;;;;;;5019007;28;45481;-86
2021/11/29 09:19:14;;;;;;;;;9.33;9.33;;;;;;;;5027298;28;45456;-85
2021/11/29 09:21:40;;;;;;;;;9.50;8.50;;;;;;;;5021386;28;47638;-84
2021/11/29 09:24:05;;;;;;;;;10.00;9.50;;;;;;;;5030732;28;45365;-86
2021/11/29 09:26:30;;;;;;;;;9.50;8.00;;;;;;;;5032178;28;45284;-85
2021/11/29 09:28:56;;;;;;;;;6.00;5.00;;;;;;;;5051343;28;45186;-86
2021/11/29 09:31:22;;;;;;;;;6.00;6.00;;;;;;;;5022962;28;47304;-85
2021/11/29 09:33:48;;;;;;;;;5.00;5.00;;;;;;;;5014345;28;45395;-85
2021/11/29 09:36:13;;;;;;;;;5.00;5.00;;;;;;;;5013560;28;45454;-85
2021/11/29 09:38:38;;;;;;;;;5.25;4.75;;;;;;;;5013947;28;45614;-85
2021/11/29 09:41:04;;;;;;;;;5.25;5.25;;;;;;;;5014030;28;47847;-86
2021/11/29 09:43:30;;;;;;;;;8.00;6.50;;;;;;;;5031905;28;45435;-85
2021/11/29 09:45:55;;;;;;;;;9.00;7.25;;;;;;;;5013686;28;45611;-86
2021/11/29 09:48:21;;;;;;;;;6.00;5.67;;;;;;;;5013728;28;45408;-85
2021/11/29 09:50:47;;;;;;;;;5.50;4.50;;;;;;;;5013641;28;47494;-86
2021/11/29 09:53:14;;;;;;;;;3.00;2.00;;;;;;;;5012402;28;45832;-85
2021/11/29 09:55:39;;;;;;;;;6.50;6.00;;;;;;;;5014022;28;45685;-85
2021/11/29 09:58:04;;;;;;;;;6.33;6.00;;;;;;;;5014297;28;45384;-85
2021/11/29 10:00:37;;;;;;;;;5.75;5.50;;;;;;;;5012393;28;47866;-85
2021/11/29 10:03:03;;;;;;;;;6.50;5.50;;;;;;;;5030288;28;45456;-86
2021/11/29 10:05:29;;;;;;;;;5.00;2.75;;;;;;;;5031515;28;45387;-86
2021/11/29 10:07:55;;;;;;;;;3.00;3.00;;;;;;;;5013508;28;45662;-86
2021/11/29 10:10:25;;;;;;;;;5.00;5.00;;;;;;;;5013004;28;46896;-86
2021/11/29 10:12:53;;;;;;;;;5.00;5.00;;;;;;;;5013936;28;46017;-85
2021/11/29 10:15:22;;;;;;;;;7.00;5.50;;;;;;;;5014009;28;45702;-86
2021/11/29 10:17:49;;;;;;;;;4.50;3.00;;;;;;;;5032331;28;45520;-85
2021/11/29 10:20:14;;;;;;;;;5.00;4.00;;;;;;;;5012227;28;47931;-85
2021/11/29 10:22:53;;;;;;;;;2.75;2.75;;;;;;;;5012864;28;45476;-86
2021/11/29 10:25:19;;;;;;;;;5.75;5.25;;;;;;;;5013328;28;45478;-85
2021/11/29 10:27:45;;;;;;;;;3.00;3.00;;;;;;;;5013548;28;45463;-86
2021/11/29 10:30:14;;;;;;;;;5.00;5.00;;;;;;;;5012921;28;47322;-86
2021/11/29 10:32:41;;;;;;;;;3.00;3.00;;;;;;;;5031539;28;45930;-86
2021/11/29 10:35:08;;;;;;;;;3.00;3.00;;;;;;;;5012956;28;45387;-86
2021/11/29 10:37:34;;;;;;;;;4.25;4.00;;;;;;;;5019315;22;45520;-85
2021/11/29 10:39:59;;;;;;;;;5.00;4.00;;;;;;;;5031398;28;46228;-86
2021/11/29 10:42:26;;;;;;;;;6.00;5.25;;;;;;;;5013123;28;45707;-84
2021/11/29 10:44:54;;;;;;;;;5.25;5.00;;;;;;;;5012852;28;45777;-86
2021/11/29 10:47:20;;;;;;;;;6.00;4.00;;;;;;;;5012931;28;45362;-86
2021/11/29 10:49:50;;;;;;;;;6.00;6.00;;;;;;;;5012954;28;47288;-86
2021/11/29 10:52:17;;;;;;;;;5.00;5.00;;;;;;;;5012065;28;45963;-86
2021/11/29 10:54:43;;;;;;;;;5.00;5.00;;;;;;;;5013840;28;45526;-86
2021/11/29 10:57:12;;;;;;;;;6.00;6.00;;;;;;;;5013298;28;45559;-86
2021/11/29 10:59:38;;;;;;;;;4.50;3.00;;;;;;;;5012352;28;47106;-86
2021/11/29 11:02:07;;;;;;;;;7.00;6.00;;;;;;;;5012910;28;45419;-86
2021/11/29 11:04:34;;;;;;;;;7.50;7.25;;;;;;;;5012781;28;45440;-86
2021/11/29 11:07:04;;;;;;;;;6.50;6.00;;;;;;;;5012138;28;45478;-86
2021/11/29 11:09:33;;;;;;;;;9.50;8.25;;;;;;;;5030416;28;46465;-86
2021/11/29 11:12:00;;;;;;;;;6.00;5.75;;;;;;;;5012909;28;45405;-86
2021/11/29 11:14:53;;;;;;;;;2.75;2.50;;;;;;;;5011867;28;45480;-86
2021/11/29 11:17:19;;;;;;;;;7.75;7.00;;;;;;;;5012640;28;45422;-86
2021/11/29 11:19:48;;;;;;;;;6.00;5.25;;;;;;;;5012623;28;47920;-85
2021/11/29 11:22:19;;;;;;;;;3.50;3.50;;;;;;;;5011882;28;45761;-86
2021/11/29 11:24:46;;;;;;;;;5.00;5.00;;;;;;;;5013125;28;45484;-86
2021/11/29 11:27:12;;;;;;;;;5.00;3.00;;;;;;;;5012359;28;45770;-85
2021/11/29 11:29:37;;;;;;;;;5.00;5.00;;;;;;;;5012389;28;48241;-86
2021/11/29 11:32:07;;;;;;;;;5.67;5.00;;;;;;;;5012714;28;45278;-86
2021/11/29 11:34:36;;;;;;;;;5.50;3.50;;;;;;;;5012309;28;45542;-86
2021/11/29 11:37:01;;;;;;;;;5.50;5.25;;;;;;;;5011735;28;45454;-86
2021/11/29 11:39:27;;;;;;;;;5.00;5.00;;;;;;;;5028544;28;47331;-86
2021/11/29 11:41:53;;;;;;;;;5.00;5.00;;;;;;;;5029584;28;45705;-86
2021/11/29 11:44:20;;;;;;;;;7.00;6.00;;;;;;;;5027603;28;45616;-86
2021/11/29 11:46:45;;;;;;;;;3.00;3.00;;;;;;;;5009492;28;45722;-86
2021/11/29 11:49:10;;;;;;;;;5.00;3.00;;;;;;;;5008309;28;47194;-86
2021/11/29 11:51:38;;;;;;;;;6.50;5.75;;;;;;;;5007945;28;45408;-86
2021/11/29 11:54:04;;;;;;;;;7.00;6.00;;;;;;;;5008880;28;45628;-85
2021/11/29 11:56:29;;;;;;;;;5.25;5.25;;;;;;;;5008451;28;45503;-86
2021/11/29 11:59:02;;;;;;;;;5.33;3.67;;;;;;;;5008341;28;47907;-86
2021/11/29 12:01:28;;;;;;;;;5.00;4.75;;;;;;;;5008558;28;45868;-86
2021/11/29 12:03:53;;;;;;;;;5.00;5.00;;;;;;;;5008648;28;45555;-85
2021/11/29 12:06:19;;;;;;;;;5.67;5.00;;;;;;;;5007584;28;45555;-86
2021/11/29 12:08:49;;;;;;;;;7.00;4.00;;;;;;;;5008152;28;48111;-86
2021/11/29 12:11:27;;;;;;;;;4.00;3.00;;;;;;;;5008423;28;45685;-85
2021/11/29 12:14:04;;;;;;;;;5.25;5.25;;;;;;;;5008707;28;45579;-86
2021/11/29 12:16:33;;;;;;;;;7.00;3.00;;;;;;;;5008495;28;45583;-86
2021/11/29 12:18:58;;;;;;;;;4.50;3.00;;;;;;;;5009791;28;46217;-86
2021/11/29 12:21:24;;;;;;;;;3.00;2.25;;;;;;;;5006788;28;45578;-86
2021/11/29 12:24:16;;;;;;;;;5.00;4.33;;;;;;;;5007598;28;45367;-86
2021/11/29 12:26:48;;;;;;;;;6.00;4.50;;;;;;;;5003060;28;45711;-84
2021/11/29 12:29:19;;;;;;;;;6.75;5.75;;;;;;;;4993681;28;47292;-85
2021/11/29 12:31:45;;;;;;;;;6.75;5.25;;;;;;;;4997099;28;45877;-85
2021/11/29 12:34:11;;;;;;;;;6.75;6.50;;;;;;;;4994941;28;45793;-85
2021/11/29 12:37:02;;;;;;;;;2.25;1.00;;;;;;;;4998661;28;45676;-86
2021/11/29 12:39:47;;;;;;;;;6.00;5.75;;;;;;;;4999691;28;47418;-86
2021/11/29 12:42:32;;;;;;;;;3.00;3.00;;;;;;;;5013430;28;45725;-86
2021/11/29 12:45:10;;;;;;;;;5.75;5.75;;;;;;;;4975999;28;45595;-86
2021/11/29 12:47:46;;;;;;;;;5.25;4.00;;;;;;;;4998137;28;45686;-86
2021/11/29 12:50:34;;;;;;;;;5.00;5.00;;;;;;;;4997858;28;45558;-85
2021/11/29 12:53:10;;;;;;;;;4.50;3.25;;;;;;;;5012053;28;45403;-85
2021/11/29 12:55:36;;;;;;;;;4.75;4.25;;;;;;;;4995877;28;45518;-86
2021/11/29 12:58:17;;;;;;;;;4.50;4.00;;;;;;;;5012539;28;45475;-85
2021/11/29 13:00:44;;;;;;;;;3.50;3.50;;;;;;;;5011419;28;47082;-86
2021/11/29 13:03:10;;;;;;;;;7.25;7.00;;;;;;;;5011073;28;45967;-86
2021/11/29 13:05:35;;;;;;;;;3.00;3.00;;;;;;;;5010824;28;45449;-85
2021/11/29 13:08:20;;;;;;;;;7.00;7.00;;;;;;;;5011173;28;45817;-86
2021/11/29 13:10:49;;;;;;;;;7.25;7.00;;;;;;;;5011280;28;48168;-86
2021/11/29 13:13:33;;;;;;;;;8.00;7.25;;;;;;;;5010230;28;45811;-86
2021/11/29 13:16:06;;;;;;;;;4.25;3.25;;;;;;;;5011050;28;45361;-86
2021/11/29 13:18:53;;;;;;;;;7.00;5.00;;;;;;;;5010955;28;45469;-86
2021/11/29 13:21:18;;;;;;;;;5.50;4.75;;;;;;;;5009337;28;47199;-87
2021/11/29 13:23:48;;;;;;;;;3.00;3.00;;;;;;;;5010420;28;45407;-87
2021/11/29 13:26:14;;;;;;;;;4.75;4.00;;;;;;;;5009841;28;45482;-86
2021/11/29 13:28:42;;;;;;;;;4.00;4.00;;;;;;;;5010272;28;45899;-87
2021/11/29 13:31:07;;;;;;;;;4.00;3.00;;;;;;;;5010296;28;47274;-87
2021/11/29 13:33:34;;;;;;;;;4.50;4.00;;;;;;;;5010021;28;45397;-87
2021/11/29 13:36:06;;;;;;;;;4.00;2.75;;;;;;;;5010040;28;45523;-87
2021/11/29 13:38:31;;;;;;;;;4.00;4.00;;;;;;;;5023443;28;45344;-87
2021/11/29 13:40:57;;;;;;;;;4.67;4.00;;;;;;;;5030599;28;47203;-87
2021/11/29 13:43:24;;;;;;;;;3.00;2.75;;;;;;;;5029692;28;45586;-85
2021/11/29 13:45:49;;;;;;;;;4.50;4.00;;;;;;;;5030840;28;45454;-86
2021/11/29 13:48:15;;;;;;;;;6.00;6.00;;;;;;;;5013375;28;45627;-86
2021/11/29 13:50:42;;;;;;;;;12.00;11.50;;;;;;;;5013222;28;47521;-86
2021/11/29 13:53:09;;;;;;;;;4.75;4.50;;;;;;;;5029799;28;45564;-86
2021/11/29 13:55:36;;;;;;;;;8.25;8.00;;;;;;;;5030243;28;45748;-86
2021/11/29 13:58:06;;;;;;;;;4.00;4.00;;;;;;;;5029620;28;45530;-86
2021/11/29 14:00:34;;;;;;;;;3.50;3.25;;;;;;;;5030105;28;47902;-86
2021/11/29 14:03:26;;;;;;;;;3.00;3.00;;;;;;;;5013933;28;45600;-86
2021/11/29 14:05:53;;;;;;;;;4.00;3.50;;;;;;;;5002568;28;45580;-86
2021/11/29 14:08:22;;;;;;;;;3.00;3.00;;;;;;;;5029865;28;45380;-86
2021/11/29 14:11:03;;;;;;;;;3.00;2.00;;;;;;;;5030610;28;47425;-86
2021/11/29 14:13:33;;;;;;;;;3.50;2.00;;;;;;;;5028993;28;45708;-86
2021/11/29 14:15:59;;;;;;;;;3.50;3.50;;;;;;;;5030295;28;45420;-86
2021/11/29 14:18:36;;;;;;;;;3.00;3.00;;;;;;;;5029939;28;45852;-86
2021/11/29 14:21:04;;;;;;;;;1.50;1.00;;;;;;;;5012602;28;47401;-86
2021/11/29 14:23:38;;;;;;;;;39.75;36.50;;;;;;;;5029964;28;45711;-86
2021/11/29 14:26:03;;;;;;;;;183.25;163.75;;;;;;;;5030199;28;45535;-86
2021/11/29 14:28:29;;;;;;;;;7.50;7.25;;;;;;;;5029238;28;45799;-86
2021/11/29 14:30:55;;;;;;;;;12.33;11.67;;;;;;;;5030050;28;47207;-85
2021/11/29 14:33:22;;;;;;;;;2.00;2.00;;;;;;;;5029706;28;45824;-86
2021/11/29 14:35:47;;;;;;;;;53.50;44.00;;;;;;;;5013024;28;45556;-85